sensor_id;sensor_type;location;lat;lon;timestamp;pressure;altitude;pressure_sealevel;temperature;humidity
61018;BME280;48171;51.550;5.434;2022-09-17T00:00:40;101373.25;;;10.80;93.44
61018;BME280;48171;51.550;5.434;2022-09-17T00:03:06;101372.38;;;10.80;93.67
61018;BME280;48171;51.550;5.434;2022-09-17T00:05:34;101376.78;;;10.81;93.45
61018;BME280;48171;51.550;5.434;2022-09-17T00:08:02;101380.31;;;10.83;93.62
61018;BME280;48171;51.550;5.434;2022-09-17T00:10:27;101379.44;;;10.81;93.38
61018;BME280;48171;51.550;5.434;2022-09-17T00:12:52;101393.53;;;10.83;93.36
61018;BME280;48171;51.550;5.434;2022-09-17T00:15:18;101393.53;;;10.85;93.57
61018;BME280;48171;51.550;5.434;2022-09-17T00:17:43;101390.88;;;10.88;93.43
61018;BME280;48171;51.550;5.434;2022-09-17T00:20:09;101385.63;;;10.91;93.58
61018;BME280;48171;51.550;5.434;2022-09-17T00:22:35;101384.72;;;10.92;93.38
61018;BME280;48171;51.550;5.434;2022-09-17T00:25:02;101382.94;;;10.92;93.64
61018;BME280;48171;51.550;5.434;2022-09-17T00:27:27;101365.34;;;10.93;92.88
61018;BME280;48171;51.550;5.434;2022-09-17T00:29:52;101389.13;;;10.94;92.71
61018;BME280;48171;51.550;5.434;2022-09-17T00:32:18;101392.66;;;10.93;92.95
61018;BME280;48171;51.550;5.434;2022-09-17T00:34:43;101386.50;;;10.93;92.48
61018;BME280;48171;51.550;5.434;2022-09-17T00:37:10;101398.81;;;10.94;92.78
61018;BME280;48171;51.550;5.434;2022-09-17T00:39:36;101390.03;;;10.95;93.07
61018;BME280;48171;51.550;5.434;2022-09-17T00:42:01;101394.41;;;10.94;93.18
61018;BME280;48171;51.550;5.434;2022-09-17T00:44:49;101393.53;;;10.98;92.88
61018;BME280;48171;51.550;5.434;2022-09-17T00:47:27;101404.09;;;10.98;93.05
61018;BME280;48171;51.550;5.434;2022-09-17T00:49:57;101398.81;;;10.98;92.77
61018;BME280;48171;51.550;5.434;2022-09-17T00:52:28;101394.41;;;10.97;92.67
61018;BME280;48171;51.550;5.434;2022-09-17T00:55:18;101399.72;;;10.99;92.17
61018;BME280;48171;51.550;5.434;2022-09-17T00:57:47;101405.00;;;10.96;92.21
61018;BME280;48171;51.550;5.434;2022-09-17T01:00:14;101410.28;;;10.93;92.12
61018;BME280;48171;51.550;5.434;2022-09-17T01:02:40;101403.22;;;10.92;92.27
61018;BME280;48171;51.550;5.434;2022-09-17T01:05:07;101409.41;;;10.91;92.29
61018;BME280;48171;51.550;5.434;2022-09-17T01:07:44;101405.88;;;10.93;92.73
61018;BME280;48171;51.550;5.434;2022-09-17T01:16:18;101405.88;;;10.93;92.08
61018;BME280;48171;51.550;5.434;2022-09-17T01:18:59;101406.75;;;10.95;92.44
61018;BME280;48171;51.550;5.434;2022-09-17T01:24:44;101419.97;;;10.94;92.65
61018;BME280;48171;51.550;5.434;2022-09-17T01:33:38;101418.19;;;10.94;93.30
61018;BME280;48171;51.550;5.434;2022-09-17T01:39:17;101424.38;;;10.93;92.86
61018;BME280;48171;51.550;5.434;2022-09-17T01:44:33;101431.41;;;10.94;93.22
61018;BME280;48171;51.550;5.434;2022-09-17T01:47:50;101429.66;;;10.92;93.41
61018;BME280;48171;51.550;5.434;2022-09-17T01:49:59;101427.00;;;10.90;93.17
61018;BME280;48171;51.550;5.434;2022-09-17T01:52:26;101428.78;;;10.88;93.37
61018;BME280;48171;51.550;5.434;2022-09-17T01:54:55;101432.31;;;10.89;93.52
61018;BME280;48171;51.550;5.434;2022-09-17T01:57:29;101437.59;;;10.89;93.01
61018;BME280;48171;51.550;5.434;2022-09-17T02:00:07;101437.59;;;10.86;93.17
61018;BME280;48171;51.550;5.434;2022-09-17T02:05:29;101428.75;;;10.82;93.54
61018;BME280;48171;51.550;5.434;2022-09-17T02:08:02;101427.91;;;10.83;93.22
61018;BME280;48171;51.550;5.434;2022-09-17T02:10:33;101436.69;;;10.82;93.39
61018;BME280;48171;51.550;5.434;2022-09-17T02:13:11;101427.91;;;10.83;93.16
61018;BME280;48171;51.550;5.434;2022-09-17T02:15:42;101427.91;;;10.81;93.44
61018;BME280;48171;51.550;5.434;2022-09-17T02:18:23;101428.78;;;10.84;93.64
61018;BME280;48171;51.550;5.434;2022-09-17T02:21:01;101427.91;;;10.85;93.31
61018;BME280;48171;51.550;5.434;2022-09-17T02:23:34;101431.44;;;10.87;93.44
61018;BME280;48171;51.550;5.434;2022-09-17T02:26:08;101436.72;;;10.87;93.68
61018;BME280;48171;51.550;5.434;2022-09-17T02:28:45;101439.38;;;10.87;93.37
61018;BME280;48171;51.550;5.434;2022-09-17T02:31:12;101438.47;;;10.86;93.12
61018;BME280;48171;51.550;5.434;2022-09-17T02:33:40;101437.56;;;10.84;93.18
61018;BME280;48171;51.550;5.434;2022-09-17T02:36:06;101439.34;;;10.84;93.42
61018;BME280;48171;51.550;5.434;2022-09-17T02:38:31;101442.84;;;10.82;93.42
61018;BME280;48171;51.550;5.434;2022-09-17T02:41:16;101449.06;;;10.85;93.18
61018;BME280;48171;51.550;5.434;2022-09-17T02:54:45;101458.72;;;10.82;93.25
61018;BME280;48171;51.550;5.434;2022-09-17T02:57:24;101452.56;;;10.82;93.00
61018;BME280;48171;51.550;5.434;2022-09-17T02:59:58;101449.94;;;10.79;92.71
61018;BME280;48171;51.550;5.434;2022-09-17T03:02:35;101453.44;;;10.79;92.78
61018;BME280;48171;51.550;5.434;2022-09-17T03:05:05;101450.78;;;10.78;92.51
61018;BME280;48171;51.550;5.434;2022-09-17T03:07:30;101449.91;;;10.77;92.96
61018;BME280;48171;51.550;5.434;2022-09-17T03:09:56;101449.91;;;10.76;92.71
61018;BME280;48171;51.550;5.434;2022-09-17T03:12:22;101442.84;;;10.78;92.96
61018;BME280;48171;51.550;5.434;2022-09-17T03:14:49;101441.09;;;10.75;92.98
61018;BME280;48171;51.550;5.434;2022-09-17T03:17:14;101441.06;;;10.72;92.80
61018;BME280;48171;51.550;5.434;2022-09-17T03:19:39;101452.56;;;10.73;93.03
61018;BME280;48171;51.550;5.434;2022-09-17T03:22:04;101452.53;;;10.70;92.43
61018;BME280;48171;51.550;5.434;2022-09-17T03:24:30;101440.19;;;10.66;92.15
61018;BME280;48171;51.550;5.434;2022-09-17T03:26:55;101449.88;;;10.64;92.24
61018;BME280;48171;51.550;5.434;2022-09-17T03:29:21;101447.25;;;10.60;92.66
61018;BME280;48171;51.550;5.434;2022-09-17T03:31:46;101441.94;;;10.59;92.12
61018;BME280;48171;51.550;5.434;2022-09-17T03:34:11;101448.09;;;10.58;92.81
61018;BME280;48171;51.550;5.434;2022-09-17T03:36:37;101443.72;;;10.57;92.23
61018;BME280;48171;51.550;5.434;2022-09-17T03:39:02;101439.31;;;10.54;91.65
61018;BME280;48171;51.550;5.434;2022-09-17T03:41:27;101444.59;;;10.54;91.65
61018;BME280;48171;51.550;5.434;2022-09-17T03:43:53;101440.16;;;10.53;91.88
61018;BME280;48171;51.550;5.434;2022-09-17T03:46:18;101452.50;;;10.51;92.01
61018;BME280;48171;51.550;5.434;2022-09-17T03:48:43;101436.63;;;10.50;91.81
61018;BME280;48171;51.550;5.434;2022-09-17T03:51:09;101447.19;;;10.48;91.27
61018;BME280;48171;51.550;5.434;2022-09-17T03:53:35;101447.19;;;10.48;91.37
61018;BME280;48171;51.550;5.434;2022-09-17T03:56:02;101447.19;;;10.45;91.59
61018;BME280;48171;51.550;5.434;2022-09-17T03:58:29;101445.41;;;10.44;91.46
61018;BME280;48171;51.550;5.434;2022-09-17T04:00:54;101449.81;;;10.42;91.19
61018;BME280;48171;51.550;5.434;2022-09-17T04:03:23;101448.94;;;10.37;91.54
61018;BME280;48171;51.550;5.434;2022-09-17T04:05:48;101445.41;;;10.35;91.31
61018;BME280;48171;51.550;5.434;2022-09-17T04:08:13;101450.66;;;10.33;91.10
61018;BME280;48171;51.550;5.434;2022-09-17T04:10:39;101455.09;;;10.34;91.38
61018;BME280;48171;51.550;5.434;2022-09-17T04:13:04;101462.13;;;10.37;91.16
61018;BME280;48171;51.550;5.434;2022-09-17T04:15:29;101467.41;;;10.37;91.21
61018;BME280;48171;51.550;5.434;2022-09-17T04:17:56;101474.44;;;10.38;91.74
61018;BME280;48171;51.550;5.434;2022-09-17T04:20:24;101469.16;;;10.38;91.84
61018;BME280;48171;51.550;5.434;2022-09-17T04:22:50;101463.91;;;10.39;91.65
61018;BME280;48171;51.550;5.434;2022-09-17T04:25:16;101469.16;;;10.38;91.45
61018;BME280;48171;51.550;5.434;2022-09-17T04:27:42;101469.16;;;10.38;91.99
61018;BME280;48171;51.550;5.434;2022-09-17T04:30:08;101465.69;;;10.40;91.91
61018;BME280;48171;51.550;5.434;2022-09-17T04:32:33;101469.22;;;10.43;92.12
61018;BME280;48171;51.550;5.434;2022-09-17T04:34:59;101467.41;;;10.40;91.91
61018;BME280;48171;51.550;5.434;2022-09-17T04:37:24;101470.09;;;10.45;92.12
61018;BME280;48171;51.550;5.434;2022-09-17T04:39:50;101480.66;;;10.48;92.27
61018;BME280;48171;51.550;5.434;2022-09-17T04:42:15;101464.81;;;10.48;92.41
61018;BME280;48171;51.550;5.434;2022-09-17T04:44:41;101471.88;;;10.50;92.23
61018;BME280;48171;51.550;5.434;2022-09-17T04:47:06;101471.00;;;10.51;92.27
61018;BME280;48171;51.550;5.434;2022-09-17T04:49:31;101473.63;;;10.51;92.28
61018;BME280;48171;51.550;5.434;2022-09-17T04:51:57;101464.81;;;10.51;92.27
61018;BME280;48171;51.550;5.434;2022-09-17T04:54:22;101462.19;;;10.51;92.35
61018;BME280;48171;51.550;5.434;2022-09-17T04:56:48;101474.50;;;10.49;92.29
61018;BME280;48171;51.550;5.434;2022-09-17T04:59:13;101468.31;;;10.48;92.47
61018;BME280;48171;51.550;5.434;2022-09-17T05:01:39;101468.34;;;10.47;91.90
61018;BME280;48171;51.550;5.434;2022-09-17T05:04:04;101470.09;;;10.43;92.03
61018;BME280;48171;51.550;5.434;2022-09-17T05:06:29;101464.78;;;10.38;91.82
61018;BME280;48171;51.550;5.434;2022-09-17T05:08:55;101473.59;;;10.39;91.55
61018;BME280;48171;51.550;5.434;2022-09-17T05:11:20;101472.69;;;10.37;91.37
61018;BME280;48171;51.550;5.434;2022-09-17T05:13:45;101473.56;;;10.36;91.61
61018;BME280;48171;51.550;5.434;2022-09-17T05:16:10;101470.03;;;10.34;91.42
61018;BME280;48171;51.550;5.434;2022-09-17T05:18:36;101481.50;;;10.34;92.00
61018;BME280;48171;51.550;5.434;2022-09-17T05:21:01;101484.13;;;10.31;91.34
61018;BME280;48171;51.550;5.434;2022-09-17T05:23:26;101485.88;;;10.31;91.00
61018;BME280;48171;51.550;5.434;2022-09-17T05:25:52;101481.47;;;10.30;91.58
61018;BME280;48171;51.550;5.434;2022-09-17T05:28:17;101484.97;;;10.29;91.50
61018;BME280;48171;51.550;5.434;2022-09-17T05:30:42;101491.09;;;10.28;91.54
61018;BME280;48171;51.550;5.434;2022-09-17T05:33:08;101498.16;;;10.27;91.58
61018;BME280;48171;51.550;5.434;2022-09-17T05:35:34;101496.41;;;10.26;91.99
61018;BME280;48171;51.550;5.434;2022-09-17T05:38:04;101500.78;;;10.24;91.72
61018;BME280;48171;51.550;5.434;2022-09-17T05:40:30;101498.13;;;10.23;92.28
61018;BME280;48171;51.550;5.434;2022-09-17T05:42:58;101501.63;;;10.21;92.54
61018;BME280;48171;51.550;5.434;2022-09-17T05:45:24;101502.53;;;10.24;92.20
61018;BME280;48171;51.550;5.434;2022-09-17T05:48:00;101506.94;;;10.28;92.62
61018;BME280;48171;51.550;5.434;2022-09-17T05:50:26;101497.28;;;10.28;92.80
61018;BME280;48171;51.550;5.434;2022-09-17T05:52:51;101498.16;;;10.29;92.67
61018;BME280;48171;51.550;5.434;2022-09-17T05:55:18;101512.31;;;10.32;92.67
61018;BME280;48171;51.550;5.434;2022-09-17T05:57:43;101509.66;;;10.34;92.75
61018;BME280;48171;51.550;5.434;2022-09-17T06:00:09;101513.22;;;10.39;92.41
61018;BME280;48171;51.550;5.434;2022-09-17T06:02:35;101525.56;;;10.45;92.70
61018;BME280;48171;51.550;5.434;2022-09-17T06:05:01;101537.91;;;10.47;92.54
61018;BME280;48171;51.550;5.434;2022-09-17T06:07:28;101541.44;;;10.49;92.64
61018;BME280;48171;51.550;5.434;2022-09-17T06:09:53;101533.53;;;10.52;92.82
61018;BME280;48171;51.550;5.434;2022-09-17T06:12:18;101532.63;;;10.52;92.79
61018;BME280;48171;51.550;5.434;2022-09-17T06:14:44;101531.78;;;10.53;92.32
61018;BME280;48171;51.550;5.434;2022-09-17T06:17:09;101522.94;;;10.54;92.12
61018;BME280;48171;51.550;5.434;2022-09-17T06:19:34;101519.44;;;10.55;91.91
61018;BME280;48171;51.550;5.434;2022-09-17T06:22:00;101522.09;;;10.56;91.98
61018;BME280;48171;51.550;5.434;2022-09-17T06:24:26;101530.03;;;10.59;92.59
61018;BME280;48171;51.550;5.434;2022-09-17T06:26:52;101531.78;;;10.59;91.80
61018;BME280;48171;51.550;5.434;2022-09-17T06:29:18;101538.84;;;10.58;91.69
61018;BME280;48171;51.550;5.434;2022-09-17T06:31:43;101538.81;;;10.55;91.29
61018;BME280;48171;51.550;5.434;2022-09-17T06:34:09;101543.22;;;10.53;91.40
61018;BME280;48171;51.550;5.434;2022-09-17T06:36:34;101545.88;;;10.56;91.71
61018;BME280;48171;51.550;5.434;2022-09-17T06:38:59;101536.22;;;10.58;91.47
61018;BME280;48171;51.550;5.434;2022-09-17T06:41:25;101538.84;;;10.58;91.97
61018;BME280;48171;51.550;5.434;2022-09-17T06:43:52;101534.41;;;10.56;91.25
61018;BME280;48171;51.550;5.434;2022-09-17T06:46:18;101525.59;;;10.55;91.91
61018;BME280;48171;51.550;5.434;2022-09-17T06:48:43;101532.66;;;10.58;92.45
61018;BME280;48171;51.550;5.434;2022-09-17T06:51:10;101531.78;;;10.62;92.27
61018;BME280;48171;51.550;5.434;2022-09-17T06:53:35;101529.19;;;10.65;92.16
61018;BME280;48171;51.550;5.434;2022-09-17T06:56:02;101530.91;;;10.66;91.59
61018;BME280;48171;51.550;5.434;2022-09-17T06:58:29;101528.31;;;10.65;91.40
61018;BME280;48171;51.550;5.434;2022-09-17T07:00:59;101523.84;;;10.62;91.58
61018;BME280;48171;51.550;5.434;2022-09-17T07:03:25;101524.72;;;10.58;91.36
61018;BME280;48171;51.550;5.434;2022-09-17T07:05:50;101530.03;;;10.59;90.69
61018;BME280;48171;51.550;5.434;2022-09-17T07:08:16;101534.44;;;10.59;90.83
61018;BME280;48171;51.550;5.434;2022-09-17T07:10:42;101536.19;;;10.57;90.45
61018;BME280;48171;51.550;5.434;2022-09-17T07:13:07;101534.44;;;10.59;90.07
61018;BME280;48171;51.550;5.434;2022-09-17T07:15:33;101536.19;;;10.57;90.10
61018;BME280;48171;51.550;5.434;2022-09-17T07:17:58;101543.25;;;10.59;89.55
61018;BME280;48171;51.550;5.434;2022-09-17T07:20:24;101547.66;;;10.60;89.25
61018;BME280;48171;51.550;5.434;2022-09-17T07:22:56;101547.66;;;10.60;89.39
61018;BME280;48171;51.550;5.434;2022-09-17T07:25:23;101544.13;;;10.61;89.79
61018;BME280;48171;51.550;5.434;2022-09-17T07:27:49;101536.22;;;10.63;89.42
61018;BME280;48171;51.550;5.434;2022-09-17T07:30:14;101535.34;;;10.63;88.79
61018;BME280;48171;51.550;5.434;2022-09-17T07:32:40;101545.03;;;10.65;89.41
61018;BME280;48171;51.550;5.434;2022-09-17T07:35:06;101540.63;;;10.66;89.86
61018;BME280;48171;51.550;5.434;2022-09-17T07:37:31;101545.91;;;10.70;90.13
61018;BME280;48171;51.550;5.434;2022-09-17T07:39:57;101545.06;;;10.73;89.83
61018;BME280;48171;51.550;5.434;2022-09-17T07:42:22;101540.66;;;10.76;89.69
61018;BME280;48171;51.550;5.434;2022-09-17T07:44:47;101550.38;;;10.82;89.20
61018;BME280;48171;51.550;5.434;2022-09-17T07:47:13;101532.75;;;10.90;90.82
61018;BME280;48171;51.550;5.434;2022-09-17T07:49:38;101549.56;;;10.97;91.00
61018;BME280;48171;51.550;5.434;2022-09-17T07:52:03;101557.50;;;11.03;90.04
61018;BME280;48171;51.550;5.434;2022-09-17T07:54:31;101546.03;;;11.04;90.49
61018;BME280;48171;51.550;5.434;2022-09-17T07:56:57;101546.03;;;11.07;90.67
61018;BME280;48171;51.550;5.434;2022-09-17T07:59:22;101539.00;;;11.09;91.57
61018;BME280;48171;51.550;5.434;2022-09-17T08:01:47;101541.63;;;11.11;90.45
61018;BME280;48171;51.550;5.434;2022-09-17T08:04:13;101545.16;;;11.13;90.00
61018;BME280;48171;51.550;5.434;2022-09-17T08:06:38;101539.00;;;11.15;89.35
61018;BME280;48171;51.550;5.434;2022-09-17T08:09:05;101541.66;;;11.17;88.21
61018;BME280;48171;51.550;5.434;2022-09-17T08:11:32;101552.22;;;11.18;87.71
61018;BME280;48171;51.550;5.434;2022-09-17T08:13:57;101534.59;;;11.22;88.06
61018;BME280;48171;51.550;5.434;2022-09-17T08:16:23;101553.13;;;11.25;88.84
61018;BME280;48171;51.550;5.434;2022-09-17T08:18:53;101546.06;;;11.26;87.77
61018;BME280;48171;51.550;5.434;2022-09-17T08:21:19;101544.31;;;11.34;88.20
61018;BME280;48171;51.550;5.434;2022-09-17T08:23:44;101545.22;;;11.31;88.25
61018;BME280;48171;51.550;5.434;2022-09-17T08:26:15;101540.81;;;11.33;87.92
61018;BME280;48171;51.550;5.434;2022-09-17T08:28:59;101547.84;;;11.36;88.73
61018;BME280;48171;51.550;5.434;2022-09-17T08:31:25;101548.72;;;11.38;88.02
61018;BME280;48171;51.550;5.434;2022-09-17T08:33:52;101546.97;;;11.38;87.17
61018;BME280;48171;51.550;5.434;2022-09-17T08:36:18;101542.56;;;11.42;87.60
61018;BME280;48171;51.550;5.434;2022-09-17T08:38:45;101547.88;;;11.44;88.72
61018;BME280;48171;51.550;5.434;2022-09-17T08:46:33;101549.63;;;11.57;88.88
61018;BME280;48171;51.550;5.434;2022-09-17T08:51:51;101558.44;;;11.67;87.44
61018;BME280;48171;51.550;5.434;2022-09-17T08:54:31;101553.16;;;11.74;87.88
61018;BME280;48171;51.550;5.434;2022-09-17T08:57:04;101546.97;;;11.86;87.80
61018;BME280;48171;51.550;5.434;2022-09-17T09:00:03;101551.38;;;11.99;87.36
61018;BME280;48171;51.550;5.434;2022-09-17T09:05:33;101560.16;;;12.29;85.10
61018;BME280;48171;51.550;5.434;2022-09-17T09:08:05;101571.66;;;12.34;84.76
61018;BME280;48171;51.550;5.434;2022-09-17T09:10:58;101578.69;;;12.34;86.50
61018;BME280;48171;51.550;5.434;2022-09-17T09:13:32;101577.84;;;12.29;87.65
61018;BME280;48171;51.550;5.434;2022-09-17T09:16:03;101566.38;;;12.19;86.81
61018;BME280;48171;51.550;5.434;2022-09-17T09:18:33;101563.72;;;12.10;84.99
61018;BME280;48171;51.550;5.434;2022-09-17T09:21:16;101566.41;;;12.02;86.92
61018;BME280;48171;51.550;5.434;2022-09-17T09:26:22;101569.06;;;11.96;89.23
61018;BME280;48171;51.550;5.434;2022-09-17T09:29:03;101573.44;;;12.01;89.02
61018;BME280;48171;51.550;5.434;2022-09-17T09:31:57;101575.22;;;12.07;87.15
61018;BME280;48171;51.550;5.434;2022-09-17T09:34:26;101560.19;;;12.14;87.16
61018;BME280;48171;51.550;5.434;2022-09-17T09:39:35;101573.41;;;12.32;86.49
61018;BME280;48171;51.550;5.434;2022-09-17T09:42:12;101566.31;;;12.40;86.84
61018;BME280;48171;51.550;5.434;2022-09-17T09:44:39;101576.91;;;12.45;83.81
61018;BME280;48171;51.550;5.434;2022-09-17T09:47:08;101563.63;;;12.53;86.77
61018;BME280;48171;51.550;5.434;2022-09-17T09:52:43;101562.72;;;12.63;84.99
61018;BME280;48171;51.550;5.434;2022-09-17T10:00:44;101570.59;;;12.83;81.03
61018;BME280;48171;51.550;5.434;2022-09-17T10:03:16;101577.63;;;12.86;81.70
61018;BME280;48171;51.550;5.434;2022-09-17T10:08:20;101561.72;;;12.86;82.29
61018;BME280;48171;51.550;5.434;2022-09-17T10:11:03;101576.75;;;12.84;81.65
61018;BME280;48171;51.550;5.434;2022-09-17T10:13:33;101573.22;;;12.80;78.74
61018;BME280;48171;51.550;5.434;2022-09-17T10:16:21;101569.72;;;12.78;80.12
61018;BME280;48171;51.550;5.434;2022-09-17T10:18:49;101575.00;;;12.78;78.76
61018;BME280;48171;51.550;5.434;2022-09-17T10:21:35;101581.16;;;12.88;80.58
61018;BME280;48171;51.550;5.434;2022-09-17T10:24:02;101576.66;;;13.02;79.05
61018;BME280;48171;51.550;5.434;2022-09-17T10:26:31;101579.25;;;13.17;79.40
61018;BME280;48171;51.550;5.434;2022-09-17T10:28:59;101580.03;;;13.29;76.33
61018;BME280;48171;51.550;5.434;2022-09-17T10:31:25;101555.25;;;13.36;75.70
61018;BME280;48171;51.550;5.434;2022-09-17T10:33:59;101558.75;;;13.43;74.89
61018;BME280;48171;51.550;5.434;2022-09-17T10:36:38;101564.06;;;13.46;76.16
61018;BME280;48171;51.550;5.434;2022-09-17T10:42:05;101564.09;;;13.36;73.50
61018;BME280;48171;51.550;5.434;2022-09-17T10:44:37;101557.06;;;13.26;75.61
61018;BME280;48171;51.550;5.434;2022-09-17T10:47:06;101563.31;;;13.14;75.60
61018;BME280;48171;51.550;5.434;2022-09-17T10:49:45;101559.84;;;13.09;79.13
61018;BME280;48171;51.550;5.434;2022-09-17T10:52:27;101564.25;;;13.10;80.00
61018;BME280;48171;51.550;5.434;2022-09-17T11:00:44;101558.97;;;13.06;82.23
61018;BME280;48171;51.550;5.434;2022-09-17T11:09:00;101547.34;;;13.31;77.27
61018;BME280;48171;51.550;5.434;2022-09-17T11:14:21;101545.31;;;13.61;75.09
61018;BME280;48171;51.550;5.434;2022-09-17T11:20:29;101534.75;;;13.56;76.91
61018;BME280;48171;51.550;5.434;2022-09-17T11:23:09;101533.88;;;13.54;73.42
61018;BME280;48171;51.550;5.434;2022-09-17T11:25:54;101541.84;;;13.57;75.63
61018;BME280;48171;51.550;5.434;2022-09-17T11:31:49;101542.66;;;13.66;76.63
61018;BME280;48171;51.550;5.434;2022-09-17T11:36:52;101531.00;;;13.80;77.01
61018;BME280;48171;51.550;5.434;2022-09-17T11:39:24;101531.75;;;13.93;75.04
61018;BME280;48171;51.550;5.434;2022-09-17T11:41:52;101534.38;;;13.98;73.52
61018;BME280;48171;51.550;5.434;2022-09-17T11:44:24;101541.50;;;13.96;72.65
61018;BME280;48171;51.550;5.434;2022-09-17T11:46:56;101523.84;;;13.90;72.22
61018;BME280;48171;51.550;5.434;2022-09-17T11:49:50;101529.09;;;13.96;74.12
61018;BME280;48171;51.550;5.434;2022-09-17T11:52:41;101530.81;;;13.97;74.59
61018;BME280;48171;51.550;5.434;2022-09-17T11:57:43;101521.91;;;14.05;74.66
61018;BME280;48171;51.550;5.434;2022-09-17T12:00:19;101516.53;;;14.08;74.65
61018;BME280;48171;51.550;5.434;2022-09-17T12:02:52;101518.19;;;14.19;77.05
61018;BME280;48171;51.550;5.434;2022-09-17T12:07:58;101513.41;;;14.49;76.82
61018;BME280;48171;51.550;5.434;2022-09-17T12:10:40;101511.56;;;14.57;75.58
61018;BME280;48171;51.550;5.434;2022-09-17T12:13:15;101517.78;;;14.55;73.47
61018;BME280;48171;51.550;5.434;2022-09-17T12:15:45;101515.06;;;14.63;75.38
61018;BME280;48171;51.550;5.434;2022-09-17T12:18:42;101518.44;;;14.75;72.81
61018;BME280;48171;51.550;5.434;2022-09-17T12:21:13;101514.75;;;14.84;73.46
61018;BME280;48171;51.550;5.434;2022-09-17T12:23:47;101510.19;;;14.94;74.44
61018;BME280;48171;51.550;5.434;2022-09-17T12:26:20;101503.16;;;14.90;75.69
61018;BME280;48171;51.550;5.434;2022-09-17T12:31:49;101515.69;;;14.83;73.78
61018;BME280;48171;51.550;5.434;2022-09-17T12:34:25;101507.63;;;14.86;71.42
61018;BME280;48171;51.550;5.434;2022-09-17T12:45:25;101505.59;;;15.05;69.69
61018;BME280;48171;51.550;5.434;2022-09-17T13:01:01;101511.78;;;15.07;56.87
61018;BME280;48171;51.550;5.434;2022-09-17T13:03:52;101496.94;;;14.91;56.16
61018;BME280;48171;51.550;5.434;2022-09-17T13:20:20;101493.94;;;15.14;53.31
61018;BME280;48171;51.550;5.434;2022-09-17T13:22:48;101492.13;;;15.14;49.59
61018;BME280;48171;51.550;5.434;2022-09-17T13:25:15;101495.66;;;15.16;50.49
61018;BME280;48171;51.550;5.434;2022-09-17T13:27:42;101486.78;;;15.19;51.14
61018;BME280;48171;51.550;5.434;2022-09-17T13:30:13;101488.50;;;15.22;50.62
61018;BME280;48171;51.550;5.434;2022-09-17T13:37:30;101482.75;;;15.46;52.49
61018;BME280;48171;51.550;5.434;2022-09-17T13:39:56;101476.56;;;15.46;53.17
61018;BME280;48171;51.550;5.434;2022-09-17T13:42:27;101488.91;;;15.50;54.22
61018;BME280;48171;51.550;5.434;2022-09-17T13:45:08;101475.38;;;15.62;57.33
61018;BME280;48171;51.550;5.434;2022-09-17T13:47:37;101484.97;;;15.75;54.56
61018;BME280;48171;51.550;5.434;2022-09-17T13:52:34;101478.72;;;15.75;54.74
61018;BME280;48171;51.550;5.434;2022-09-17T13:55:00;101482.25;;;15.77;56.17
61018;BME280;48171;51.550;5.434;2022-09-17T13:57:27;101489.28;;;15.81;55.11
61018;BME280;48171;51.550;5.434;2022-09-17T13:59:58;101488.50;;;15.76;54.09
61018;BME280;48171;51.550;5.434;2022-09-17T14:02:30;101485.84;;;15.74;56.72
61018;BME280;48171;51.550;5.434;2022-09-17T14:05:23;101481.25;;;15.83;58.78
61018;BME280;48171;51.550;5.434;2022-09-17T14:07:51;101482.22;;;15.78;55.08
61018;BME280;48171;51.550;5.434;2022-09-17T14:20:52;101497.41;;;15.72;59.61
61018;BME280;48171;51.550;5.434;2022-09-17T14:23:18;101493.97;;;15.65;57.71
61018;BME280;48171;51.550;5.434;2022-09-17T14:25:48;101502.91;;;15.61;59.92
61018;BME280;48171;51.550;5.434;2022-09-17T14:28:30;101503.03;;;15.55;59.12
61018;BME280;48171;51.550;5.434;2022-09-17T14:31:00;101506.81;;;15.42;58.49
61018;BME280;48171;51.550;5.434;2022-09-17T14:33:29;101506.06;;;15.32;59.64
61018;BME280;48171;51.550;5.434;2022-09-17T14:36:01;101503.53;;;15.24;59.01
61018;BME280;48171;51.550;5.434;2022-09-17T14:38:37;101509.88;;;15.17;59.00
61018;BME280;48171;51.550;5.434;2022-09-17T14:46:33;101518.72;;;15.17;62.96
61018;BME280;48171;51.550;5.434;2022-09-17T14:49:22;101517.59;;;15.32;61.14
61018;BME280;48171;51.550;5.434;2022-09-17T14:51:50;101513.97;;;15.36;60.81
61018;BME280;48171;51.550;5.434;2022-09-17T14:54:35;101512.19;;;15.37;61.28
61018;BME280;48171;51.550;5.434;2022-09-17T14:57:02;101515.69;;;15.40;57.78
61018;BME280;48171;51.550;5.434;2022-09-17T14:59:49;101516.50;;;15.47;60.49
61018;BME280;48171;51.550;5.434;2022-09-17T15:02:31;101518.97;;;15.56;61.83
61018;BME280;48171;51.550;5.434;2022-09-17T15:04:57;101513.75;;;15.52;59.17
61018;BME280;48171;51.550;5.434;2022-09-17T15:07:24;101519.09;;;15.50;61.08
61018;BME280;48171;51.550;5.434;2022-09-17T15:09:49;101512.06;;;15.46;59.54
61018;BME280;48171;51.550;5.434;2022-09-17T15:12:26;101514.72;;;15.46;60.65
61018;BME280;48171;51.550;5.434;2022-09-17T15:14:54;101510.25;;;15.48;60.65
61018;BME280;48171;51.550;5.434;2022-09-17T15:17:20;101507.56;;;15.50;57.92
61018;BME280;48171;51.550;5.434;2022-09-17T15:19:52;101508.41;;;15.52;58.43
61018;BME280;48171;51.550;5.434;2022-09-17T15:22:33;101508.44;;;15.49;57.30
61018;BME280;48171;51.550;5.434;2022-09-17T15:25:05;101514.72;;;15.46;58.46
61018;BME280;48171;51.550;5.434;2022-09-17T15:27:40;101507.66;;;15.44;55.57
61018;BME280;48171;51.550;5.434;2022-09-17T15:30:17;101511.22;;;15.43;54.22
61018;BME280;48171;51.550;5.434;2022-09-17T15:32:59;101505.03;;;15.42;51.71
61018;BME280;48171;51.550;5.434;2022-09-17T15:35:27;101520.16;;;15.38;50.32
61018;BME280;48171;51.550;5.434;2022-09-17T15:40:28;101520.28;;;15.31;55.12
61018;BME280;48171;51.550;5.434;2022-09-17T15:42:56;101523.97;;;15.24;54.68